sensor_id;sensor_type;location;lat;lon;timestamp;P1;durP1;ratioP1;P2;durP2;ratioP2
42840;SDS011;28491;46.898;7.660;2023-05-15T00:01:15;3.83;;;2.15;;
42840;SDS011;28491;46.898;7.660;2023-05-15T00:03:41;8.18;;;2.22;;
42840;SDS011;28491;46.898;7.660;2023-05-15T00:06:07;2.72;;;1.92;;
42840;SDS011;28491;46.898;7.660;2023-05-15T00:08:32;3.60;;;1.90;;
42840;SDS011;28491;46.898;7.660;2023-05-15T00:10:58;3.25;;;1.85;;
42840;SDS011;28491;46.898;7.660;2023-05-15T00:13:23;6.35;;;2.38;;
42840;SDS011;28491;46.898;7.660;2023-05-15T00:15:49;3.03;;;2.15;;
42840;SDS011;28491;46.898;7.660;2023-05-15T00:18:15;4.50;;;2.50;;
42840;SDS011;28491;46.898;7.660;2023-05-15T00:20:40;3.90;;;2.63;;
42840;SDS011;28491;46.898;7.660;2023-05-15T00:23:06;5.32;;;3.22;;
42840;SDS011;28491;46.898;7.660;2023-05-15T00:25:31;3.67;;;2.00;;
42840;SDS011;28491;46.898;7.660;2023-05-15T00:27:57;8.35;;;2.63;;
42840;SDS011;28491;46.898;7.660;2023-05-15T00:30:22;4.70;;;2.05;;
42840;SDS011;28491;46.898;7.660;2023-05-15T00:32:48;3.90;;;2.60;;
42840;SDS011;28491;46.898;7.660;2023-05-15T00:35:13;3.60;;;2.30;;
42840;SDS011;28491;46.898;7.660;2023-05-15T00:37:39;3.63;;;2.10;;
42840;SDS011;28491;46.898;7.660;2023-05-15T00:40:05;4.60;;;2.35;;
42840;SDS011;28491;46.898;7.660;2023-05-15T00:42:33;2.97;;;1.98;;
42840;SDS011;28491;46.898;7.660;2023-05-15T00:44:59;3.47;;;2.55;;
42840;SDS011;28491;46.898;7.660;2023-05-15T00:47:26;3.63;;;2.50;;
42840;SDS011;28491;46.898;7.660;2023-05-15T00:49:51;3.35;;;2.30;;
42840;SDS011;28491;46.898;7.660;2023-05-15T00:52:17;3.33;;;2.00;;
42840;SDS011;28491;46.898;7.660;2023-05-15T00:54:44;3.67;;;3.15;;
42840;SDS011;28491;46.898;7.660;2023-05-15T00:57:10;4.97;;;2.28;;
42840;SDS011;28491;46.898;7.660;2023-05-15T00:59:35;2.85;;;2.13;;
42840;SDS011;28491;46.898;7.660;2023-05-15T01:02:03;2.92;;;2.13;;
42840;SDS011;28491;46.898;7.660;2023-05-15T01:04:29;5.68;;;2.42;;
42840;SDS011;28491;46.898;7.660;2023-05-15T01:06:55;5.22;;;2.40;;
42840;SDS011;28491;46.898;7.660;2023-05-15T01:09:23;3.65;;;2.40;;
42840;SDS011;28491;46.898;7.660;2023-05-15T01:11:52;2.95;;;2.35;;
42840;SDS011;28491;46.898;7.660;2023-05-15T01:14:19;3.72;;;2.38;;
42840;SDS011;28491;46.898;7.660;2023-05-15T01:16:44;3.40;;;2.35;;
42840;SDS011;28491;46.898;7.660;2023-05-15T01:19:10;3.88;;;2.35;;
42840;SDS011;28491;46.898;7.660;2023-05-15T01:24:26;5.72;;;2.47;;
42840;SDS011;28491;46.898;7.660;2023-05-15T01:27:21;2.90;;;2.22;;
42840;SDS011;28491;46.898;7.660;2023-05-15T01:30:04;4.32;;;2.47;;
42840;SDS011;28491;46.898;7.660;2023-05-15T01:35:24;6.18;;;2.20;;
42840;SDS011;28491;46.898;7.660;2023-05-15T01:40:26;4.60;;;2.25;;
42840;SDS011;28491;46.898;7.660;2023-05-15T01:42:53;3.50;;;2.50;;
42840;SDS011;28491;46.898;7.660;2023-05-15T01:45:23;3.58;;;2.30;;
42840;SDS011;28491;46.898;7.660;2023-05-15T01:47:50;3.90;;;2.70;;
42840;SDS011;28491;46.898;7.660;2023-05-15T01:50:18;4.55;;;2.85;;
42840;SDS011;28491;46.898;7.660;2023-05-15T01:52:47;4.35;;;2.75;;
42840;SDS011;28491;46.898;7.660;2023-05-15T01:55:16;3.85;;;2.67;;
42840;SDS011;28491;46.898;7.660;2023-05-15T01:57:44;3.47;;;2.50;;
42840;SDS011;28491;46.898;7.660;2023-05-15T02:00:12;2.80;;;2.20;;
42840;SDS011;28491;46.898;7.660;2023-05-15T02:02:38;3.00;;;2.13;;
42840;SDS011;28491;46.898;7.660;2023-05-15T02:05:06;3.65;;;2.60;;
42840;SDS011;28491;46.898;7.660;2023-05-15T02:07:32;3.25;;;2.50;;
42840;SDS011;28491;46.898;7.660;2023-05-15T02:09:58;3.78;;;2.58;;
42840;SDS011;28491;46.898;7.660;2023-05-15T02:12:25;3.15;;;2.45;;
42840;SDS011;28491;46.898;7.660;2023-05-15T02:14:52;3.75;;;2.50;;
42840;SDS011;28491;46.898;7.660;2023-05-15T02:17:20;3.58;;;2.50;;
42840;SDS011;28491;46.898;7.660;2023-05-15T02:19:47;3.25;;;2.47;;
42840;SDS011;28491;46.898;7.660;2023-05-15T02:22:13;3.35;;;2.42;;
42840;SDS011;28491;46.898;7.660;2023-05-15T02:24:39;4.35;;;2.80;;
42840;SDS011;28491;46.898;7.660;2023-05-15T02:27:11;3.55;;;2.75;;
42840;SDS011;28491;46.898;7.660;2023-05-15T02:37:59;3.95;;;2.80;;
42840;SDS011;28491;46.898;7.660;2023-05-15T02:40:26;3.38;;;2.72;;
42840;SDS011;28491;46.898;7.660;2023-05-15T02:42:54;4.00;;;2.60;;
42840;SDS011;28491;46.898;7.660;2023-05-15T02:45:21;6.43;;;2.90;;
42840;SDS011;28491;46.898;7.660;2023-05-15T02:47:48;3.85;;;2.92;;
42840;SDS011;28491;46.898;7.660;2023-05-15T02:50:15;3.83;;;2.38;;
42840;SDS011;28491;46.898;7.660;2023-05-15T02:52:41;3.70;;;2.35;;
42840;SDS011;28491;46.898;7.660;2023-05-15T02:55:07;4.53;;;2.78;;
42840;SDS011;28491;46.898;7.660;2023-05-15T02:57:33;4.80;;;2.80;;
42840;SDS011;28491;46.898;7.660;2023-05-15T02:59:59;4.50;;;2.92;;
42840;SDS011;28491;46.898;7.660;2023-05-15T03:02:24;7.38;;;3.35;;
42840;SDS011;28491;46.898;7.660;2023-05-15T03:04:50;3.67;;;2.90;;
42840;SDS011;28491;46.898;7.660;2023-05-15T03:07:15;4.60;;;2.63;;
42840;SDS011;28491;46.898;7.660;2023-05-15T03:09:41;3.45;;;2.70;;
42840;SDS011;28491;46.898;7.660;2023-05-15T03:12:07;3.92;;;2.63;;
42840;SDS011;28491;46.898;7.660;2023-05-15T03:14:33;3.05;;;2.35;;
42840;SDS011;28491;46.898;7.660;2023-05-15T03:16:59;4.80;;;2.47;;
42840;SDS011;28491;46.898;7.660;2023-05-15T03:19:25;6.40;;;3.97;;
42840;SDS011;28491;46.898;7.660;2023-05-15T03:21:50;6.00;;;3.28;;
42840;SDS011;28491;46.898;7.660;2023-05-15T03:24:16;5.13;;;3.38;;
42840;SDS011;28491;46.898;7.660;2023-05-15T03:26:41;4.65;;;3.92;;
42840;SDS011;28491;46.898;7.660;2023-05-15T03:29:08;4.25;;;2.65;;
42840;SDS011;28491;46.898;7.660;2023-05-15T03:31:34;4.50;;;2.67;;
42840;SDS011;28491;46.898;7.660;2023-05-15T03:34:00;6.80;;;2.80;;
42840;SDS011;28491;46.898;7.660;2023-05-15T03:36:25;8.20;;;6.05;;
42840;SDS011;28491;46.898;7.660;2023-05-15T03:38:51;7.85;;;5.35;;
42840;SDS011;28491;46.898;7.660;2023-05-15T03:41:16;5.72;;;3.17;;
42840;SDS011;28491;46.898;7.660;2023-05-15T03:43:42;5.68;;;2.60;;
42840;SDS011;28491;46.898;7.660;2023-05-15T03:46:07;3.80;;;2.55;;
42840;SDS011;28491;46.898;7.660;2023-05-15T03:48:33;3.30;;;2.55;;
42840;SDS011;28491;46.898;7.660;2023-05-15T03:50:58;9.35;;;3.85;;
42840;SDS011;28491;46.898;7.660;2023-05-15T03:53:24;13.60;;;3.45;;
42840;SDS011;28491;46.898;7.660;2023-05-15T03:55:50;10.30;;;4.63;;
42840;SDS011;28491;46.898;7.660;2023-05-15T03:58:15;3.38;;;2.67;;
42840;SDS011;28491;46.898;7.660;2023-05-15T04:00:41;3.78;;;2.67;;
42840;SDS011;28491;46.898;7.660;2023-05-15T04:03:06;4.95;;;2.80;;
42840;SDS011;28491;46.898;7.660;2023-05-15T04:05:32;3.60;;;2.72;;
42840;SDS011;28491;46.898;7.660;2023-05-15T04:07:58;5.35;;;2.80;;
42840;SDS011;28491;46.898;7.660;2023-05-15T04:10:23;5.32;;;2.50;;
42840;SDS011;28491;46.898;7.660;2023-05-15T04:12:49;3.63;;;2.47;;
42840;SDS011;28491;46.898;7.660;2023-05-15T04:17:45;4.75;;;3.08;;
42840;SDS011;28491;46.898;7.660;2023-05-15T04:20:12;4.78;;;2.45;;
42840;SDS011;28491;46.898;7.660;2023-05-15T04:22:39;3.03;;;2.35;;
42840;SDS011;28491;46.898;7.660;2023-05-15T04:25:05;4.15;;;3.03;;
42840;SDS011;28491;46.898;7.660;2023-05-15T04:27:32;8.60;;;6.32;;
42840;SDS011;28491;46.898;7.660;2023-05-15T04:29:57;4.68;;;3.70;;
42840;SDS011;28491;46.898;7.660;2023-05-15T04:32:24;5.68;;;4.38;;
42840;SDS011;28491;46.898;7.660;2023-05-15T04:34:49;4.00;;;3.03;;
42840;SDS011;28491;46.898;7.660;2023-05-15T04:37:15;10.07;;;3.22;;
42840;SDS011;28491;46.898;7.660;2023-05-15T04:39:40;4.65;;;3.08;;
42840;SDS011;28491;46.898;7.660;2023-05-15T04:42:06;4.45;;;3.25;;
42840;SDS011;28491;46.898;7.660;2023-05-15T04:44:31;4.18;;;2.90;;
42840;SDS011;28491;46.898;7.660;2023-05-15T04:46:57;8.52;;;5.88;;
42840;SDS011;28491;46.898;7.660;2023-05-15T04:49:23;6.18;;;2.92;;
42840;SDS011;28491;46.898;7.660;2023-05-15T04:51:48;3.85;;;2.90;;
42840;SDS011;28491;46.898;7.660;2023-05-15T04:54:14;5.40;;;2.65;;
42840;SDS011;28491;46.898;7.660;2023-05-15T04:56:39;3.58;;;2.53;;
42840;SDS011;28491;46.898;7.660;2023-05-15T04:59:05;2.58;;;2.15;;
42840;SDS011;28491;46.898;7.660;2023-05-15T05:01:30;4.25;;;3.13;;
42840;SDS011;28491;46.898;7.660;2023-05-15T05:03:56;3.85;;;2.50;;
42840;SDS011;28491;46.898;7.660;2023-05-15T05:06:22;5.38;;;3.30;;
42840;SDS011;28491;46.898;7.660;2023-05-15T05:08:47;4.70;;;2.78;;
42840;SDS011;28491;46.898;7.660;2023-05-15T05:11:13;3.80;;;2.15;;
42840;SDS011;28491;46.898;7.660;2023-05-15T05:13:38;4.80;;;3.13;;
42840;SDS011;28491;46.898;7.660;2023-05-15T05:16:04;4.20;;;3.03;;
42840;SDS011;28491;46.898;7.660;2023-05-15T05:18:30;4.05;;;3.22;;
42840;SDS011;28491;46.898;7.660;2023-05-15T05:20:59;2.58;;;2.20;;
42840;SDS011;28491;46.898;7.660;2023-05-15T05:23:25;5.32;;;2.83;;
42840;SDS011;28491;46.898;7.660;2023-05-15T05:25:51;5.72;;;2.00;;
42840;SDS011;28491;46.898;7.660;2023-05-15T05:28:17;3.60;;;2.60;;
42840;SDS011;28491;46.898;7.660;2023-05-15T05:30:45;3.35;;;2.53;;
42840;SDS011;28491;46.898;7.660;2023-05-15T05:33:11;3.60;;;2.90;;
42840;SDS011;28491;46.898;7.660;2023-05-15T05:35:37;6.13;;;3.20;;
42840;SDS011;28491;46.898;7.660;2023-05-15T05:38:02;3.60;;;2.60;;
42840;SDS011;28491;46.898;7.660;2023-05-15T05:40:28;4.35;;;2.80;;
42840;SDS011;28491;46.898;7.660;2023-05-15T05:42:54;4.20;;;2.90;;
42840;SDS011;28491;46.898;7.660;2023-05-15T05:45:22;4.00;;;2.38;;
42840;SDS011;28491;46.898;7.660;2023-05-15T05:47:48;2.75;;;2.00;;
42840;SDS011;28491;46.898;7.660;2023-05-15T05:50:13;1.88;;;1.60;;
42840;SDS011;28491;46.898;7.660;2023-05-15T05:52:39;2.58;;;1.80;;
42840;SDS011;28491;46.898;7.660;2023-05-15T05:55:04;2.65;;;1.90;;
42840;SDS011;28491;46.898;7.660;2023-05-15T05:57:30;2.75;;;1.95;;
42840;SDS011;28491;46.898;7.660;2023-05-15T05:59:56;2.33;;;1.70;;
42840;SDS011;28491;46.898;7.660;2023-05-15T06:02:21;2.88;;;2.00;;
42840;SDS011;28491;46.898;7.660;2023-05-15T06:04:47;3.53;;;1.65;;
42840;SDS011;28491;46.898;7.660;2023-05-15T06:07:12;3.35;;;1.80;;
42840;SDS011;28491;46.898;7.660;2023-05-15T06:09:38;2.33;;;1.73;;
42840;SDS011;28491;46.898;7.660;2023-05-15T06:12:03;4.30;;;1.63;;
42840;SDS011;28491;46.898;7.660;2023-05-15T06:14:30;1.65;;;1.33;;
42840;SDS011;28491;46.898;7.660;2023-05-15T06:16:55;3.00;;;1.73;;
42840;SDS011;28491;46.898;7.660;2023-05-15T06:19:21;4.50;;;2.00;;
42840;SDS011;28491;46.898;7.660;2023-05-15T06:21:46;2.40;;;1.60;;
42840;SDS011;28491;46.898;7.660;2023-05-15T06:24:12;3.58;;;1.95;;
42840;SDS011;28491;46.898;7.660;2023-05-15T06:26:38;3.10;;;2.08;;
42840;SDS011;28491;46.898;7.660;2023-05-15T06:29:04;2.72;;;1.98;;
42840;SDS011;28491;46.898;7.660;2023-05-15T06:31:29;4.18;;;2.30;;
42840;SDS011;28491;46.898;7.660;2023-05-15T06:33:55;3.53;;;2.20;;
42840;SDS011;28491;46.898;7.660;2023-05-15T06:36:20;3.80;;;2.90;;
42840;SDS011;28491;46.898;7.660;2023-05-15T06:38:46;2.72;;;1.92;;
42840;SDS011;28491;46.898;7.660;2023-05-15T06:41:11;2.28;;;1.73;;
42840;SDS011;28491;46.898;7.660;2023-05-15T06:43:37;5.35;;;2.45;;
42840;SDS011;28491;46.898;7.660;2023-05-15T06:46:02;4.65;;;2.30;;
42840;SDS011;28491;46.898;7.660;2023-05-15T06:48:28;3.92;;;2.50;;
42840;SDS011;28491;46.898;7.660;2023-05-15T06:50:54;6.53;;;2.13;;
42840;SDS011;28491;46.898;7.660;2023-05-15T06:53:19;2.42;;;1.70;;
42840;SDS011;28491;46.898;7.660;2023-05-15T06:55:45;3.88;;;1.90;;
42840;SDS011;28491;46.898;7.660;2023-05-15T06:58:10;4.13;;;2.28;;
42840;SDS011;28491;46.898;7.660;2023-05-15T07:00:36;4.05;;;2.53;;
42840;SDS011;28491;46.898;7.660;2023-05-15T07:03:02;3.65;;;2.03;;
42840;SDS011;28491;46.898;7.660;2023-05-15T07:05:27;4.32;;;1.80;;
42840;SDS011;28491;46.898;7.660;2023-05-15T07:07:53;3.30;;;1.65;;
42840;SDS011;28491;46.898;7.660;2023-05-15T07:10:18;3.47;;;1.67;;
42840;SDS011;28491;46.898;7.660;2023-05-15T07:12:44;3.13;;;1.80;;
42840;SDS011;28491;46.898;7.660;2023-05-15T07:15:10;3.33;;;1.80;;
42840;SDS011;28491;46.898;7.660;2023-05-15T07:17:35;2.90;;;2.03;;
42840;SDS011;28491;46.898;7.660;2023-05-15T07:20:01;2.83;;;1.98;;
42840;SDS011;28491;46.898;7.660;2023-05-15T07:22:29;5.15;;;1.80;;
42840;SDS011;28491;46.898;7.660;2023-05-15T07:24:55;1.92;;;1.70;;
42840;SDS011;28491;46.898;7.660;2023-05-15T07:27:20;3.15;;;1.92;;
42840;SDS011;28491;46.898;7.660;2023-05-15T07:29:46;1.85;;;1.23;;
42840;SDS011;28491;46.898;7.660;2023-05-15T07:32:12;3.05;;;1.80;;
42840;SDS011;28491;46.898;7.660;2023-05-15T07:34:37;3.75;;;1.70;;
42840;SDS011;28491;46.898;7.660;2023-05-15T07:37:03;3.10;;;1.98;;
42840;SDS011;28491;46.898;7.660;2023-05-15T07:39:28;5.60;;;3.80;;
42840;SDS011;28491;46.898;7.660;2023-05-15T07:41:54;4.32;;;2.20;;
42840;SDS011;28491;46.898;7.660;2023-05-15T07:44:20;3.88;;;2.00;;
42840;SDS011;28491;46.898;7.660;2023-05-15T07:46:45;3.42;;;2.35;;
42840;SDS011;28491;46.898;7.660;2023-05-15T07:49:11;3.80;;;1.98;;
42840;SDS011;28491;46.898;7.660;2023-05-15T07:51:36;2.47;;;1.90;;
42840;SDS011;28491;46.898;7.660;2023-05-15T07:54:02;3.25;;;2.25;;
42840;SDS011;28491;46.898;7.660;2023-05-15T07:56:28;7.80;;;3.88;;
42840;SDS011;28491;46.898;7.660;2023-05-15T07:58:54;3.47;;;2.42;;
42840;SDS011;28491;46.898;7.660;2023-05-15T08:01:19;3.20;;;1.80;;
42840;SDS011;28491;46.898;7.660;2023-05-15T08:03:45;4.57;;;2.17;;
42840;SDS011;28491;46.898;7.660;2023-05-15T08:06:10;2.35;;;1.58;;
42840;SDS011;28491;46.898;7.660;2023-05-15T08:08:36;2.85;;;1.60;;
42840;SDS011;28491;46.898;7.660;2023-05-15T08:11:01;2.42;;;1.80;;
42840;SDS011;28491;46.898;7.660;2023-05-15T08:13:27;2.67;;;1.60;;
42840;SDS011;28491;46.898;7.660;2023-05-15T08:15:52;3.15;;;1.55;;
42840;SDS011;28491;46.898;7.660;2023-05-15T08:18:18;2.97;;;1.50;;
42840;SDS011;28491;46.898;7.660;2023-05-15T08:20:43;2.67;;;1.30;;
42840;SDS011;28491;46.898;7.660;2023-05-15T08:23:09;3.60;;;1.67;;
42840;SDS011;28491;46.898;7.660;2023-05-15T08:25:35;2.47;;;1.75;;
42840;SDS011;28491;46.898;7.660;2023-05-15T08:28:01;2.13;;;1.65;;
42840;SDS011;28491;46.898;7.660;2023-05-15T08:30:26;2.58;;;1.75;;
42840;SDS011;28491;46.898;7.660;2023-05-15T08:32:52;2.83;;;1.73;;
42840;SDS011;28491;46.898;7.660;2023-05-15T08:35:18;2.47;;;1.70;;
42840;SDS011;28491;46.898;7.660;2023-05-15T08:37:43;2.08;;;1.70;;
42840;SDS011;28491;46.898;7.660;2023-05-15T08:40:09;4.10;;;2.70;;
42840;SDS011;28491;46.898;7.660;2023-05-15T08:42:44;3.97;;;1.92;;
42840;SDS011;28491;46.898;7.660;2023-05-15T08:45:13;3.30;;;1.88;;
42840;SDS011;28491;46.898;7.660;2023-05-15T08:47:40;2.83;;;1.50;;
42840;SDS011;28491;46.898;7.660;2023-05-15T08:52:40;2.40;;;1.52;;
42840;SDS011;28491;46.898;7.660;2023-05-15T08:55:08;2.42;;;1.73;;
42840;SDS011;28491;46.898;7.660;2023-05-15T08:57:34;2.75;;;1.83;;
42840;SDS011;28491;46.898;7.660;2023-05-15T09:00:02;2.28;;;1.35;;
42840;SDS011;28491;46.898;7.660;2023-05-15T09:02:32;2.13;;;1.65;;
42840;SDS011;28491;46.898;7.660;2023-05-15T09:04:57;3.97;;;2.20;;
42840;SDS011;28491;46.898;7.660;2023-05-15T09:07:23;4.30;;;2.50;;
42840;SDS011;28491;46.898;7.660;2023-05-15T09:09:49;2.72;;;1.88;;
42840;SDS011;28491;46.898;7.660;2023-05-15T09:12:16;3.15;;;2.05;;
42840;SDS011;28491;46.898;7.660;2023-05-15T09:14:42;2.63;;;1.90;;
42840;SDS011;28491;46.898;7.660;2023-05-15T09:17:11;3.13;;;1.88;;
42840;SDS011;28491;46.898;7.660;2023-05-15T09:22:16;4.00;;;2.13;;
42840;SDS011;28491;46.898;7.660;2023-05-15T09:24:48;3.17;;;2.10;;
42840;SDS011;28491;46.898;7.660;2023-05-15T09:27:16;3.10;;;2.53;;
42840;SDS011;28491;46.898;7.660;2023-05-15T09:29:41;3.42;;;2.58;;
42840;SDS011;28491;46.898;7.660;2023-05-15T09:32:08;3.33;;;2.55;;
42840;SDS011;28491;46.898;7.660;2023-05-15T09:34:35;3.05;;;2.58;;
42840;SDS011;28491;46.898;7.660;2023-05-15T09:37:03;4.97;;;3.85;;
42840;SDS011;28491;46.898;7.660;2023-05-15T09:39:30;4.47;;;3.50;;
42840;SDS011;28491;46.898;7.660;2023-05-15T09:42:05;5.82;;;3.08;;
42840;SDS011;28491;46.898;7.660;2023-05-15T09:44:32;3.80;;;2.65;;
42840;SDS011;28491;46.898;7.660;2023-05-15T09:46:58;3.10;;;2.35;;
42840;SDS011;28491;46.898;7.660;2023-05-15T09:49:24;3.40;;;2.72;;
42840;SDS011;28491;46.898;7.660;2023-05-15T09:51:51;4.43;;;2.45;;
42840;SDS011;28491;46.898;7.660;2023-05-15T09:54:19;4.15;;;3.10;;
42840;SDS011;28491;46.898;7.660;2023-05-15T09:59:14;4.07;;;3.58;;
42840;SDS011;28491;46.898;7.660;2023-05-15T10:01:43;4.35;;;2.85;;
42840;SDS011;28491;46.898;7.660;2023-05-15T10:04:10;3.13;;;2.50;;
42840;SDS011;28491;46.898;7.660;2023-05-15T10:06:46;3.97;;;2.67;;
42840;SDS011;28491;46.898;7.660;2023-05-15T10:09:12;5.40;;;2.80;;
42840;SDS011;28491;46.898;7.660;2023-05-15T10:11:39;5.53;;;2.92;;
42840;SDS011;28491;46.898;7.660;2023-05-15T10:14:10;4.97;;;3.10;;
42840;SDS011;28491;46.898;7.660;2023-05-15T10:16:38;6.35;;;2.88;;
42840;SDS011;28491;46.898;7.660;2023-05-15T10:19:05;4.47;;;3.40;;
42840;SDS011;28491;46.898;7.660;2023-05-15T10:21:33;4.60;;;3.40;;
42840;SDS011;28491;46.898;7.660;2023-05-15T10:24:00;6.47;;;4.13;;
42840;SDS011;28491;46.898;7.660;2023-05-15T10:26:36;3.35;;;2.97;;
42840;SDS011;28491;46.898;7.660;2023-05-15T10:29:10;4.35;;;2.95;;
42840;SDS011;28491;46.898;7.660;2023-05-15T10:31:45;4.75;;;3.10;;
42840;SDS011;28491;46.898;7.660;2023-05-15T10:34:13;4.55;;;3.58;;
42840;SDS011;28491;46.898;7.660;2023-05-15T10:36:40;7.68;;;5.07;;
42840;SDS011;28491;46.898;7.660;2023-05-15T10:39:07;5.65;;;2.90;;
42840;SDS011;28491;46.898;7.660;2023-05-15T10:41:34;5.65;;;3.25;;
42840;SDS011;28491;46.898;7.660;2023-05-15T10:44:01;9.60;;;3.90;;
42840;SDS011;28491;46.898;7.660;2023-05-15T10:46:27;8.30;;;3.53;;
42840;SDS011;28491;46.898;7.660;2023-05-15T10:48:55;18.90;;;4.60;;
42840;SDS011;28491;46.898;7.660;2023-05-15T10:51:26;6.47;;;3.28;;
42840;SDS011;28491;46.898;7.660;2023-05-15T10:53:53;17.50;;;4.65;;
42840;SDS011;28491;46.898;7.660;2023-05-15T10:56:19;9.90;;;4.28;;
42840;SDS011;28491;46.898;7.660;2023-05-15T10:58:48;11.55;;;4.95;;
42840;SDS011;28491;46.898;7.660;2023-05-15T11:01:28;6.30;;;4.38;;
42840;SDS011;28491;46.898;7.660;2023-05-15T11:06:47;9.35;;;5.38;;
42840;SDS011;28491;46.898;7.660;2023-05-15T11:14:17;8.20;;;5.38;;
42840;SDS011;28491;46.898;7.660;2023-05-15T11:21:58;10.30;;;5.22;;
42840;SDS011;28491;46.898;7.660;2023-05-15T11:24:49;5.93;;;4.60;;
42840;SDS011;28491;46.898;7.660;2023-05-15T11:27:22;8.60;;;5.43;;
42840;SDS011;28491;46.898;7.660;2023-05-15T11:32:42;8.82;;;5.28;;
42840;SDS011;28491;46.898;7.660;2023-05-15T11:35:32;7.38;;;5.03;;
42840;SDS011;28491;46.898;7.660;2023-05-15T11:40:44;5.35;;;3.78;;
42840;SDS011;28491;46.898;7.660;2023-05-15T11:45:50;5.03;;;4.07;;
42840;SDS011;28491;46.898;7.660;2023-05-15T11:48:17;5.78;;;4.47;;
42840;SDS011;28491;46.898;7.660;2023-05-15T11:50:43;4.78;;;3.35;;
42840;SDS011;28491;46.898;7.660;2023-05-15T11:53:09;5.72;;;3.90;;
42840;SDS011;28491;46.898;7.660;2023-05-15T11:55:36;5.15;;;2.85;;
42840;SDS011;28491;46.898;7.660;2023-05-15T11:58:04;8.38;;;3.47;;
42840;SDS011;28491;46.898;7.660;2023-05-15T12:00:34;3.90;;;2.83;;
42840;SDS011;28491;46.898;7.660;2023-05-15T12:03:00;4.38;;;2.53;;
42840;SDS011;28491;46.898;7.660;2023-05-15T12:05:27;3.50;;;2.20;;
42840;SDS011;28491;46.898;7.660;2023-05-15T12:07:54;3.53;;;2.22;;
42840;SDS011;28491;46.898;7.660;2023-05-15T12:10:19;2.20;;;1.90;;
42840;SDS011;28491;46.898;7.660;2023-05-15T12:12:45;2.58;;;2.17;;
42840;SDS011;28491;46.898;7.660;2023-05-15T12:15:11;3.78;;;3.13;;
42840;SDS011;28491;46.898;7.660;2023-05-15T12:17:38;2.63;;;2.25;;
42840;SDS011;28491;46.898;7.660;2023-05-15T12:20:08;4.05;;;3.10;;
42840;SDS011;28491;46.898;7.660;2023-05-15T12:22:38;2.90;;;2.20;;
42840;SDS011;28491;46.898;7.660;2023-05-15T12:25:04;3.00;;;2.20;;
42840;SDS011;28491;46.898;7.660;2023-05-15T12:27:31;3.25;;;2.40;;
42840;SDS011;28491;46.898;7.660;2023-05-15T12:29:58;5.18;;;2.20;;
42840;SDS011;28491;46.898;7.660;2023-05-15T12:32:24;3.55;;;2.50;;
42840;SDS011;28491;46.898;7.660;2023-05-15T12:34:51;3.05;;;1.70;;
42840;SDS011;28491;46.898;7.660;2023-05-15T12:37:20;3.15;;;1.80;;
42840;SDS011;28491;46.898;7.660;2023-05-15T12:39:52;2.72;;;1.42;;
42840;SDS011;28491;46.898;7.660;2023-05-15T12:42:19;2.28;;;1.60;;
42840;SDS011;28491;46.898;7.660;2023-05-15T12:44:45;2.58;;;1.60;;
42840;SDS011;28491;46.898;7.660;2023-05-15T12:47:13;2.38;;;1.50;;
42840;SDS011;28491;46.898;7.660;2023-05-15T12:49:40;3.10;;;1.90;;
42840;SDS011;28491;46.898;7.660;2023-05-15T12:52:09;4.03;;;1.77;;
42840;SDS011;28491;46.898;7.660;2023-05-15T12:57:05;2.80;;;1.80;;
42840;SDS011;28491;46.898;7.660;2023-05-15T12:59:32;4.25;;;2.03;;
42840;SDS011;28491;46.898;7.660;2023-05-15T13:01:57;4.40;;;2.05;;
42840;SDS011;28491;46.898;7.660;2023-05-15T13:04:23;5.70;;;2.47;;
42840;SDS011;28491;46.898;7.660;2023-05-15T13:06:49;6.38;;;3.25;;
42840;SDS011;28491;46.898;7.660;2023-05-15T13:09:19;4.05;;;2.22;;
42840;SDS011;28491;46.898;7.660;2023-05-15T13:11:46;2.80;;;2.20;;
42840;SDS011;28491;46.898;7.660;2023-05-15T13:14:12;4.30;;;2.03;;
42840;SDS011;28491;46.898;7.660;2023-05-15T13:16:41;2.30;;;1.80;;
42840;SDS011;28491;46.898;7.660;2023-05-15T13:19:08;4.65;;;1.90;;
42840;SDS011;28491;46.898;7.660;2023-05-15T13:21:34;2.78;;;2.00;;
42840;SDS011;28491;46.898;7.660;2023-05-15T13:24:00;2.47;;;1.83;;
42840;SDS011;28491;46.898;7.660;2023-05-15T13:26:25;2.28;;;1.73;;
42840;SDS011;28491;46.898;7.660;2023-05-15T13:28:51;2.60;;;2.03;;
42840;SDS011;28491;46.898;7.660;2023-05-15T13:31:16;3.28;;;2.10;;
42840;SDS011;28491;46.898;7.660;2023-05-15T13:33:42;3.78;;;2.30;;
42840;SDS011;28491;46.898;7.660;2023-05-15T13:36:07;4.47;;;2.50;;
42840;SDS011;28491;46.898;7.660;2023-05-15T13:38:33;8.88;;;5.82;;
42840;SDS011;28491;46.898;7.660;2023-05-15T13:40:58;7.18;;;3.58;;
42840;SDS011;28491;46.898;7.660;2023-05-15T13:43:24;3.65;;;2.42;;
42840;SDS011;28491;46.898;7.660;2023-05-15T13:45:50;3.80;;;2.47;;
42840;SDS011;28491;46.898;7.660;2023-05-15T13:48:15;5.03;;;3.45;;
42840;SDS011;28491;46.898;7.660;2023-05-15T13:50:41;3.72;;;2.75;;
42840;SDS011;28491;46.898;7.660;2023-05-15T13:53:07;3.13;;;2.25;;
42840;SDS011;28491;46.898;7.660;2023-05-15T13:55:33;4.03;;;2.05;;
42840;SDS011;28491;46.898;7.660;2023-05-15T13:57:58;4.35;;;2.70;;
42840;SDS011;28491;46.898;7.660;2023-05-15T14:00:24;3.50;;;2.30;;
42840;SDS011;28491;46.898;7.660;2023-05-15T14:02:50;3.30;;;1.98;;
42840;SDS011;28491;46.898;7.660;2023-05-15T14:05:16;5.88;;;3.33;;
42840;SDS011;28491;46.898;7.660;2023-05-15T14:07:42;4.15;;;2.95;;
42840;SDS011;28491;46.898;7.660;2023-05-15T14:10:07;4.75;;;3.67;;
42840;SDS011;28491;46.898;7.660;2023-05-15T14:12:34;3.88;;;2.28;;
42840;SDS011;28491;46.898;7.660;2023-05-15T14:15:01;3.10;;;1.92;;
42840;SDS011;28491;46.898;7.660;2023-05-15T14:17:27;2.60;;;1.98;;
42840;SDS011;28491;46.898;7.660;2023-05-15T14:19:53;3.42;;;2.20;;
42840;SDS011;28491;46.898;7.660;2023-05-15T14:22:18;6.00;;;3.53;;
42840;SDS011;28491;46.898;7.660;2023-05-15T14:24:44;7.57;;;5.70;;
42840;SDS011;28491;46.898;7.660;2023-05-15T14:27:09;3.33;;;2.15;;
42840;SDS011;28491;46.898;7.660;2023-05-15T14:29:35;2.85;;;1.98;;
42840;SDS011;28491;46.898;7.660;2023-05-15T14:32:00;3.60;;;2.30;;
42840;SDS011;28491;46.898;7.660;2023-05-15T14:34:26;4.15;;;1.90;;
42840;SDS011;28491;46.898;7.660;2023-05-15T14:36:53;3.55;;;2.30;;
42840;SDS011;28491;46.898;7.660;2023-05-15T14:39:18;3.63;;;2.47;;
42840;SDS011;28491;46.898;7.660;2023-05-15T14:41:44;3.90;;;2.20;;
42840;SDS011;28491;46.898;7.660;2023-05-15T14:44:10;5.05;;;2.83;;
42840;SDS011;28491;46.898;7.660;2023-05-15T14:46:35;5.95;;;3.83;;
42840;SDS011;28491;46.898;7.660;2023-05-15T14:49:02;3.30;;;2.38;;
42840;SDS011;28491;46.898;7.660;2023-05-15T14:51:28;2.40;;;1.77;;
42840;SDS011;28491;46.898;7.660;2023-05-15T14:53:53;3.00;;;2.03;;
42840;SDS011;28491;46.898;7.660;2023-05-15T14:56:19;3.15;;;2.10;;
42840;SDS011;28491;46.898;7.660;2023-05-15T14:58:44;3.33;;;2.08;;
42840;SDS011;28491;46.898;7.660;2023-05-15T15:01:10;3.25;;;1.77;;
42840;SDS011;28491;46.898;7.660;2023-05-15T15:03:36;4.63;;;2.40;;
42840;SDS011;28491;46.898;7.660;2023-05-15T15:06:01;3.45;;;2.65;;
42840;SDS011;28491;46.898;7.660;2023-05-15T15:08:28;3.88;;;2.30;;
42840;SDS011;28491;46.898;7.660;2023-05-15T15:10:53;2.88;;;2.38;;
42840;SDS011;28491;46.898;7.660;2023-05-15T15:13:19;7.20;;;3.15;;
42840;SDS011;28491;46.898;7.660;2023-05-15T15:15:45;6.32;;;3.05;;
42840;SDS011;28491;46.898;7.660;2023-05-15T15:18:10;2.90;;;2.25;;
42840;SDS011;28491;46.898;7.660;2023-05-15T15:20:36;4.13;;;2.40;;
42840;SDS011;28491;46.898;7.660;2023-05-15T15:23:01;6.05;;;3.75;;
42840;SDS011;28491;46.898;7.660;2023-05-15T15:25:28;4.95;;;3.80;;
42840;SDS011;28491;46.898;7.660;2023-05-15T15:27:53;2.35;;;1.92;;
42840;SDS011;28491;46.898;7.660;2023-05-15T15:30:19;4.65;;;2.17;;
42840;SDS011;28491;46.898;7.660;2023-05-15T15:32:45;4.60;;;2.55;;
42840;SDS011;28491;46.898;7.660;2023-05-15T15:35:10;3.60;;;2.47;;